Terminal Aerodrome Forecast
Issued by NWS

Home | Current Version | Previous Version | Text Only | Print | Product List | Glossary On
Versions: 1 2 3 4 5 6 7 8 9 10 11 12 13 14 15 16 17 18 19 20 21 22 23 24 25 26 27 28 29
000
FTUS44 KFWD 101301 AAA
TAFFTW
TAF AMD
KFTW 101301Z 1013/1112 14010KT P6SM BKN050
     FM101700 16014KT P6SM SCT028
      TEMPO 1017/1019 BKN028
     FM110200 17016KT P6SM BKN025
     FM110600 18018KT P6SM -DZ OVC012=

USA.gov is the U.S. government's official web portal to all federal, state and local government web resources and services.